Time,TemperatureF,DewpointF,PressureIn,WindDirection,WindDirectionDegrees,WindSpeedMPH,WindSpeedGustMPH,Humidity,HourlyPrecipIn,Conditions,Clouds,dailyrainin,SolarRadiationWatts/m^2,SoftwareType,DateUTC
2013-02-02 00:02:00,37.0,14.0,30.21,NNE,19,2.0,4.0,37,-99.99,,,-99.99,0.000000,,2013-02-02 07:02:00,
2013-02-02 00:11:00,38.0,14.0,30.21,NNE,19,3.0,4.0,37,-99.99,,,-99.99,0.000000,,2013-02-02 07:11:00,
2013-02-02 00:21:00,38.0,14.0,30.21,NNE,19,3.0,4.0,37,-99.99,,,-99.99,0.000000,,2013-02-02 07:21:00,
2013-02-02 00:31:00,37.0,14.0,30.22,NNE,19,3.0,4.0,38,-99.99,,,-99.99,0.000000,,2013-02-02 07:31:00,
2013-02-02 00:42:00,35.0,13.0,30.22,NNE,26,2.0,4.0,38,-99.99,,,-99.99,0.000000,,2013-02-02 07:42:00,
2013-02-02 00:52:00,35.0,13.0,30.22,NNE,26,2.0,4.0,38,-99.99,,,-99.99,0.000000,,2013-02-02 07:52:00,
2013-02-02 01:01:00,32.0,11.0,30.22,NE,43,3.0,7.0,41,-99.99,,,-99.99,0.000000,,2013-02-02 08:01:00,
2013-02-02 01:11:00,34.0,13.0,30.22,NE,54,1.0,4.0,41,-99.99,,,-99.99,0.000000,,2013-02-02 08:11:00,
2013-02-02 01:21:00,34.0,13.0,30.22,NE,54,1.0,4.0,41,-99.99,,,-99.99,0.000000,,2013-02-02 08:21:00,
2013-02-02 01:31:00,35.0,13.0,30.23,SSW,201,1.0,4.0,40,-99.99,,,-99.99,0.000000,,2013-02-02 08:31:00,
2013-02-02 01:41:00,35.0,14.0,30.23,SSW,201,1.0,2.0,41,-99.99,,,-99.99,0.000000,,2013-02-02 08:41:00,
2013-02-02 01:53:00,35.0,14.0,30.23,SSW,201,1.0,2.0,41,-99.99,,,-99.99,0.000000,,2013-02-02 08:53:00,
2013-02-02 02:01:00,34.0,13.0,30.23,SSW,202,1.0,2.0,42,-99.99,,,-99.99,0.000000,,2013-02-02 09:01:00,
2013-02-02 02:11:00,33.0,14.0,30.23,SSW,202,1.0,3.0,43,-99.99,,,-99.99,0.000000,,2013-02-02 09:11:00,
2013-02-02 02:22:00,33.0,14.0,30.23,SSW,202,1.0,3.0,43,-99.99,,,-99.99,0.000000,,2013-02-02 09:22:00,
2013-02-02 02:31:00,33.0,14.0,30.23,SSW,202,0.0,2.0,44,-99.99,,,-99.99,0.000000,,2013-02-02 09:31:00,
2013-02-02 02:41:00,34.0,14.0,30.23,SSW,202,1.0,2.0,43,-99.99,,,-99.99,0.000000,,2013-02-02 09:41:00,
2013-02-02 02:52:00,34.0,14.0,30.23,SSW,202,1.0,2.0,43,-99.99,,,-99.99,0.000000,,2013-02-02 09:52:00,
2013-02-02 03:01:00,35.0,14.0,30.23,SSW,202,0.0,2.0,41,-99.99,,,-99.99,0.000000,,2013-02-02 10:01:00,
2013-02-02 03:11:00,35.0,13.0,30.24,South,186,3.0,4.0,41,-99.99,,,-99.99,0.000000,,2013-02-02 10:11:00,
2013-02-02 03:21:00,35.0,13.0,30.24,South,186,3.0,4.0,41,-99.99,,,-99.99,0.000000,,2013-02-02 10:21:00,
2013-02-02 03:31:00,34.0,14.0,30.24,SE,128,3.0,4.0,42,-99.99,,,-99.99,0.000000,,2013-02-02 10:31:00,
2013-02-02 03:42:00,33.0,13.0,30.25,East,90,4.0,5.0,42,-99.99,,,-99.99,0.000000,,2013-02-02 10:42:00,
2013-02-02 03:52:00,33.0,13.0,30.25,East,90,4.0,5.0,42,-99.99,,,-99.99,0.000000,,2013-02-02 10:52:00,
2013-02-02 04:01:00,29.0,11.0,30.26,ESE,115,2.0,4.0,45,-99.99,,,-99.99,0.000000,,2013-02-02 11:01:00,
2013-02-02 04:11:00,28.0,11.0,30.26,ESE,102,4.0,5.0,48,-99.99,,,-99.99,0.000000,,2013-02-02 11:11:00,
2013-02-02 04:21:00,28.0,11.0,30.26,ESE,102,4.0,5.0,48,-99.99,,,-99.99,0.000000,,2013-02-02 11:21:00,
2013-02-02 04:32:00,28.0,12.0,30.26,ENE,63,2.0,5.0,48,-99.99,,,-99.99,0.000000,,2013-02-02 11:32:00,
2013-02-02 04:42:00,27.0,10.0,30.26,North,7,0.0,2.0,48,-99.99,,,-99.99,0.000000,,2013-02-02 11:42:00,
2013-02-02 04:52:00,27.0,10.0,30.26,North,7,0.0,2.0,48,-99.99,,,-99.99,0.000000,,2013-02-02 11:52:00,
2013-02-02 05:01:00,28.0,12.0,30.26,NNW,339,0.0,1.0,50,-99.99,,,-99.99,0.000000,,2013-02-02 12:01:00,
2013-02-02 05:11:00,30.0,13.0,30.26,NNW,339,0.0,2.0,47,-99.99,,,-99.99,0.000000,,2013-02-02 12:11:00,
2013-02-02 05:22:00,30.0,13.0,30.26,NNW,339,0.0,2.0,47,-99.99,,,-99.99,0.000000,,2013-02-02 12:22:00,
2013-02-02 05:32:00,32.0,14.0,30.26,NNW,339,1.0,2.0,45,-99.99,,,-99.99,0.000000,,2013-02-02 12:32:00,
2013-02-02 05:42:00,34.0,14.0,30.26,NNE,18,2.0,4.0,43,-99.99,,,-99.99,0.000000,,2013-02-02 12:42:00,
2013-02-02 05:52:00,34.0,14.0,30.26,NNE,18,2.0,4.0,43,-99.99,,,-99.99,0.000000,,2013-02-02 12:52:00,
2013-02-02 06:02:00,33.0,14.0,30.27,ENE,73,4.0,5.0,43,-99.99,,,-99.99,0.000000,,2013-02-02 13:02:00,
2013-02-02 06:11:00,32.0,13.0,30.27,ENE,71,4.0,5.0,45,-99.99,,,-99.99,0.000000,,2013-02-02 13:11:00,
2013-02-02 06:21:00,32.0,13.0,30.27,ENE,71,4.0,5.0,45,-99.99,,,-99.99,0.000000,,2013-02-02 13:21:00,
2013-02-02 06:32:00,30.0,13.0,30.27,NE,52,4.0,5.0,47,-99.99,,,-99.99,0.000000,,2013-02-02 13:32:00,
2013-02-02 06:42:00,29.0,12.0,30.28,NE,49,3.0,4.0,48,-99.99,,,-99.99,0.000000,,2013-02-02 13:42:00,
2013-02-02 06:52:00,29.0,12.0,30.28,NE,49,3.0,4.0,48,-99.99,,,-99.99,0.000000,,2013-02-02 13:52:00,
2013-02-02 07:02:00,25.0,10.0,30.28,SW,236,1.0,5.0,50,-99.99,,,-99.99,0.000000,,2013-02-02 14:02:00,
2013-02-02 07:11:00,27.0,12.0,30.28,SW,235,1.0,3.0,51,-99.99,,,-99.99,0.000000,,2013-02-02 14:11:00,
2013-02-02 07:22:00,27.0,12.0,30.28,SW,235,1.0,3.0,51,-99.99,,,-99.99,0.000000,,2013-02-02 14:22:00,
2013-02-02 07:32:00,28.0,12.0,30.28,SW,235,1.0,3.0,51,-99.99,,,-99.99,2.790000,,2013-02-02 14:32:00,
2013-02-02 07:42:00,30.0,14.0,30.28,WSW,252,2.0,3.0,49,-99.99,,,-99.99,18.830000,,2013-02-02 14:42:00,
2013-02-02 07:52:00,30.0,14.0,30.28,WSW,252,2.0,3.0,49,-99.99,,,-99.99,18.830000,,2013-02-02 14:52:00,
2013-02-02 08:03:00,32.0,13.0,30.28,North,352,4.0,6.0,45,-99.99,,,-99.99,65.550003,,2013-02-02 15:03:00,
2013-02-02 08:12:00,31.0,13.0,30.29,NNW,348,6.0,7.0,46,-99.99,,,-99.99,107.389999,,2013-02-02 15:12:00,
2013-02-02 08:22:00,31.0,13.0,30.29,NNW,348,6.0,7.0,46,-99.99,,,-99.99,107.389999,,2013-02-02 15:22:00,
2013-02-02 08:32:00,32.0,13.0,30.29,NNW,345,6.0,7.0,45,-99.99,,,-99.99,170.850006,,2013-02-02 15:32:00,
2013-02-02 08:42:00,35.0,14.0,30.30,NNW,348,5.0,7.0,42,-99.99,,,-99.99,207.809998,,2013-02-02 15:42:00,
2013-02-02 08:52:00,35.0,14.0,30.30,NNW,348,5.0,7.0,42,-99.99,,,-99.99,207.809998,,2013-02-02 15:52:00,
2013-02-02 09:03:00,40.0,16.0,30.30,North,349,6.0,10.0,36,-99.99,,,-99.99,284.510010,,2013-02-02 16:03:00,
2013-02-02 09:11:00,45.0,17.0,30.31,NNE,13,7.0,8.0,31,-99.99,,,-99.99,341.000000,,2013-02-02 16:11:00,
2013-02-02 09:22:00,45.0,17.0,30.31,NNE,13,7.0,8.0,31,-99.99,,,-99.99,341.000000,,2013-02-02 16:22:00,
2013-02-02 09:32:00,47.0,17.0,30.32,ENE,65,7.0,10.0,29,-99.99,,,-99.99,395.390015,,2013-02-02 16:32:00,
2013-02-02 09:42:00,47.0,17.0,30.33,ESE,120,8.0,11.0,29,-99.99,,,-99.99,400.970001,,2013-02-02 16:42:00,
2013-02-02 09:52:00,46.0,17.0,30.34,East,98,9.0,12.0,29,-99.99,,,-99.99,479.070007,,2013-02-02 16:52:00,
2013-02-02 10:02:00,46.0,17.0,30.34,East,98,9.0,12.0,29,-99.99,,,-99.99,479.070007,,2013-02-02 17:02:00,
2013-02-02 10:11:00,48.0,17.0,30.34,East,94,6.0,12.0,28,-99.99,,,-99.99,534.159973,,2013-02-02 17:11:00,
2013-02-02 10:22:00,48.0,17.0,30.34,East,94,6.0,12.0,28,-99.99,,,-99.99,534.159973,,2013-02-02 17:22:00,
2013-02-02 10:32:00,51.0,18.0,30.35,NE,41,1.0,6.0,26,-99.99,,,-99.99,476.980011,,2013-02-02 17:32:00,
2013-02-02 10:42:00,52.0,18.0,30.36,NE,52,4.0,9.0,26,-99.99,,,-99.99,534.159973,,2013-02-02 17:42:00,
2013-02-02 10:52:00,52.0,18.0,30.36,NE,52,4.0,9.0,26,-99.99,,,-99.99,534.159973,,2013-02-02 17:52:00,
2013-02-02 11:02:00,52.0,18.0,30.36,NE,52,4.0,9.0,26,-99.99,,,-99.99,534.159973,,2013-02-02 18:02:00,
2013-02-02 11:12:00,52.0,18.0,30.36,NE,52,4.0,9.0,26,-99.99,,,-99.99,534.159973,,2013-02-02 18:12:00,
2013-02-02 12:32:00,57.0,18.0,30.34,NNE,13,5.0,10.0,21,-99.99,,,-99.99,706.400024,,2013-02-02 19:32:00,
2013-02-02 12:42:00,57.0,18.0,30.34,NNE,13,5.0,10.0,21,-99.99,,,-99.99,706.400024,,2013-02-02 19:42:00,
2013-02-02 12:52:00,57.0,18.0,30.34,NNE,13,5.0,10.0,21,-99.99,,,-99.99,706.400024,,2013-02-02 19:52:00,
2013-02-02 13:01:00,58.0,16.0,30.32,NNE,23,8.0,12.0,18,-99.99,,,-99.99,704.309998,,2013-02-02 20:01:00,
2013-02-02 13:11:00,59.0,16.0,30.31,North,8,7.0,11.0,18,-99.99,,,-99.99,709.190002,,2013-02-02 20:11:00,
2013-02-02 13:21:00,59.0,16.0,30.31,North,8,7.0,11.0,18,-99.99,,,-99.99,709.190002,,2013-02-02 20:21:00,
2013-02-02 13:32:00,60.0,15.0,30.30,North,359,8.0,13.0,17,-99.99,,,-99.99,711.979980,,2013-02-02 20:32:00,
2013-02-02 13:42:00,60.0,15.0,30.29,North,351,7.0,13.0,16,-99.99,,,-99.99,638.760010,,2013-02-02 20:42:00,
2013-02-02 13:52:00,60.0,15.0,30.29,North,351,7.0,13.0,16,-99.99,,,-99.99,638.760010,,2013-02-02 20:52:00,
2013-02-02 14:02:00,61.0,14.0,30.29,NNW,348,7.0,14.0,15,-99.99,,,-99.99,685.479980,,2013-02-02 21:02:00,
2013-02-02 14:11:00,62.0,14.0,30.29,North,1,6.0,11.0,15,-99.99,,,-99.99,600.400024,,2013-02-02 21:11:00,
2013-02-02 14:21:00,62.0,14.0,30.29,North,1,6.0,11.0,15,-99.99,,,-99.99,600.400024,,2013-02-02 21:21:00,
2013-02-02 14:32:00,62.0,13.0,30.28,NNE,23,6.0,11.0,14,-99.99,,,-99.99,608.770020,,2013-02-02 21:32:00,
2013-02-02 14:42:00,62.0,13.0,30.27,NNE,28,7.0,12.0,14,-99.99,,,-99.99,534.159973,,2013-02-02 21:42:00,
2013-02-02 14:52:00,62.0,13.0,30.27,NNE,28,7.0,12.0,14,-99.99,,,-99.99,534.159973,,2013-02-02 21:52:00,
2013-02-02 15:02:00,63.0,12.0,30.27,NNE,20,6.0,12.0,13,-99.99,,,-99.99,496.500000,,2013-02-02 22:02:00,
2013-02-02 15:12:00,63.0,11.0,30.26,NNE,32,5.0,11.0,12,-99.99,,,-99.99,357.730011,,2013-02-02 22:12:00,
2013-02-02 15:21:00,63.0,11.0,30.26,NNE,32,5.0,11.0,12,-99.99,,,-99.99,357.730011,,2013-02-02 22:21:00,
2013-02-02 15:32:00,63.0,11.0,30.26,NE,46,3.0,7.0,12,-99.99,,,-99.99,422.579987,,2013-02-02 22:32:00,
2013-02-02 15:42:00,64.0,11.0,30.26,NE,47,4.0,9.0,12,-99.99,,,-99.99,472.790009,,2013-02-02 22:42:00,
2013-02-02 15:52:00,65.0,10.0,30.25,NE,52,2.0,10.0,11,-99.99,,,-99.99,425.369995,,2013-02-02 22:52:00,
2013-02-02 16:02:00,65.0,10.0,30.25,NE,52,2.0,10.0,11,-99.99,,,-99.99,425.369995,,2013-02-02 23:02:00,
2013-02-02 16:11:00,65.0,10.0,30.25,NNE,33,4.0,9.0,11,-99.99,,,-99.99,366.100006,,2013-02-02 23:11:00,
2013-02-02 16:21:00,65.0,10.0,30.25,NNE,33,4.0,9.0,11,-99.99,,,-99.99,366.100006,,2013-02-02 23:21:00,
2013-02-02 16:32:00,64.0,10.0,30.25,NNE,24,3.0,8.0,11,-99.99,,,-99.99,329.140015,,2013-02-02 23:32:00,
2013-02-02 16:42:00,65.0,10.0,30.25,ENE,76,2.0,5.0,11,-99.99,,,-99.99,289.390015,,2013-02-02 23:42:00,
2013-02-02 16:52:00,65.0,10.0,30.25,ENE,76,2.0,5.0,11,-99.99,,,-99.99,289.390015,,2013-02-02 23:52:00,
2013-02-02 17:02:00,64.0,10.0,30.25,NNE,17,4.0,7.0,11,-99.99,,,-99.99,223.149994,,2013-02-03 00:02:00,
2013-02-02 17:11:00,65.0,10.0,30.25,North,6,2.0,5.0,11,-99.99,,,-99.99,185.490005,,2013-02-03 00:11:00,
2013-02-02 17:22:00,65.0,10.0,30.25,North,6,2.0,5.0,11,-99.99,,,-99.99,185.490005,,2013-02-03 00:22:00,
2013-02-02 17:32:00,64.0,10.0,30.25,NNE,20,4.0,6.0,11,-99.99,,,-99.99,131.100006,,2013-02-03 00:32:00,
2013-02-02 17:42:00,63.0,10.0,30.25,NNE,12,3.0,4.0,11,-99.99,,,-99.99,63.459999,,2013-02-03 00:42:00,
2013-02-02 17:52:00,63.0,10.0,30.25,NNE,12,3.0,4.0,11,-99.99,,,-99.99,63.459999,,2013-02-03 00:52:00,
2013-02-02 18:02:00,62.0,9.0,30.25,NNE,12,2.0,3.0,12,-99.99,,,-99.99,18.830000,,2013-02-03 01:02:00,
2013-02-02 18:11:00,60.0,9.0,30.25,NNE,12,3.0,3.0,12,-99.99,,,-99.99,4.880000,,2013-02-03 01:11:00,
2013-02-02 18:21:00,60.0,9.0,30.25,NNE,12,3.0,3.0,12,-99.99,,,-99.99,4.880000,,2013-02-03 01:21:00,
2013-02-02 18:32:00,59.0,9.0,30.25,North,11,3.0,4.0,13,-99.99,,,-99.99,0.700000,,2013-02-03 01:32:00,
2013-02-02 18:42:00,57.0,8.0,30.25,NNW,344,4.0,7.0,14,-99.99,,,-99.99,0.000000,,2013-02-03 01:42:00,
2013-02-02 18:52:00,57.0,8.0,30.25,NNW,344,4.0,7.0,14,-99.99,,,-99.99,0.000000,,2013-02-03 01:52:00,
2013-02-02 19:01:00,53.0,11.0,30.25,NW,304,7.0,9.0,18,-99.99,,,-99.99,0.000000,,2013-02-03 02:01:00,
2013-02-02 19:11:00,50.0,12.0,30.26,NW,311,5.0,6.0,21,-99.99,,,-99.99,0.000000,,2013-02-03 02:11:00,
2013-02-02 19:21:00,50.0,12.0,30.26,NW,311,5.0,6.0,21,-99.99,,,-99.99,0.000000,,2013-02-03 02:21:00,
2013-02-02 19:32:00,49.0,12.0,30.26,NNW,329,4.0,6.0,22,-99.99,,,-99.99,0.000000,,2013-02-03 02:32:00,
2013-02-02 19:42:00,47.0,12.0,30.27,NNW,331,5.0,7.0,24,-99.99,,,-99.99,0.000000,,2013-02-03 02:42:00,
2013-02-02 19:52:00,47.0,12.0,30.27,NNW,331,5.0,7.0,24,-99.99,,,-99.99,0.000000,,2013-02-03 02:52:00,
2013-02-02 20:02:00,47.0,13.0,30.27,NW,325,5.0,6.0,24,-99.99,,,-99.99,0.000000,,2013-02-03 03:02:00,
2013-02-02 20:11:00,48.0,13.0,30.27,NW,323,5.0,7.0,24,-99.99,,,-99.99,0.000000,,2013-02-03 03:11:00,
2013-02-02 20:21:00,48.0,13.0,30.27,NW,323,5.0,7.0,24,-99.99,,,-99.99,0.000000,,2013-02-03 03:21:00,
2013-02-02 20:31:00,48.0,13.0,30.27,NW,319,4.0,7.0,24,-99.99,,,-99.99,0.000000,,2013-02-03 03:31:00,
2013-02-02 20:42:00,47.0,13.0,30.27,North,3,3.0,5.0,24,-99.99,,,-99.99,0.000000,,2013-02-03 03:42:00,
2013-02-02 20:52:00,47.0,13.0,30.27,North,3,3.0,5.0,24,-99.99,,,-99.99,0.000000,,2013-02-03 03:52:00,
2013-02-02 21:01:00,45.0,11.0,30.28,East,97,9.0,12.0,24,-99.99,,,-99.99,0.000000,,2013-02-03 04:01:00,
2013-02-02 21:11:00,47.0,10.0,30.28,ESE,102,9.0,10.0,21,-99.99,,,-99.99,0.000000,,2013-02-03 04:11:00,
2013-02-02 21:21:00,47.0,10.0,30.28,ESE,102,9.0,10.0,21,-99.99,,,-99.99,0.000000,,2013-02-03 04:21:00,
2013-02-02 21:31:00,49.0,9.0,30.28,ENE,73,7.0,8.0,19,-99.99,,,-99.99,0.000000,,2013-02-03 04:31:00,
2013-02-02 21:42:00,48.0,8.0,30.28,ENE,63,7.0,9.0,19,-99.99,,,-99.99,0.000000,,2013-02-03 04:42:00,
2013-02-02 21:52:00,48.0,8.0,30.28,ENE,63,7.0,9.0,19,-99.99,,,-99.99,0.000000,,2013-02-03 04:52:00,
2013-02-02 22:03:00,46.0,8.0,30.29,NE,48,3.0,7.0,20,-99.99,,,-99.99,0.000000,,2013-02-03 05:03:00,
2013-02-02 22:12:00,44.0,8.0,30.29,North,353,4.0,6.0,23,-99.99,,,-99.99,0.000000,,2013-02-03 05:12:00,
2013-02-02 22:22:00,44.0,8.0,30.29,North,353,4.0,6.0,23,-99.99,,,-99.99,0.000000,,2013-02-03 05:22:00,
2013-02-02 22:32:00,41.0,10.0,30.29,NNW,342,3.0,6.0,26,-99.99,,,-99.99,0.000000,,2013-02-03 05:32:00,
2013-02-02 22:42:00,40.0,10.0,30.28,NNE,30,3.0,5.0,27,-99.99,,,-99.99,0.000000,,2013-02-03 05:42:00,
2013-02-02 22:52:00,40.0,10.0,30.28,NNE,30,3.0,5.0,27,-99.99,,,-99.99,0.000000,,2013-02-03 05:52:00,
2013-02-02 23:02:00,39.0,9.0,30.28,NNE,28,4.0,5.0,28,-99.99,,,-99.99,0.000000,,2013-02-03 06:02:00,
2013-02-02 23:11:00,39.0,10.0,30.28,North,10,4.0,5.0,29,-99.99,,,-99.99,0.000000,,2013-02-03 06:11:00,
2013-02-02 23:21:00,39.0,10.0,30.28,North,10,4.0,5.0,29,-99.99,,,-99.99,0.000000,,2013-02-03 06:21:00,
2013-02-02 23:32:00,39.0,10.0,30.28,North,8,4.0,5.0,29,-99.99,,,-99.99,0.000000,,2013-02-03 06:32:00,
2013-02-02 23:41:00,39.0,10.0,30.28,North,8,3.0,5.0,29,-99.99,,,-99.99,0.000000,,2013-02-03 06:41:00,
2013-02-02 23:52:00,39.0,10.0,30.28,North,8,3.0,5.0,29,-99.99,,,-99.99,0.000000,,2013-02-03 06:52:00,